sensor_id;sensor_type;location;lat;lon;timestamp;temperature;humidity
33109;HTU21D;19481;51.118;6.940;2023-04-25T00:00:37;5.38;64.68
33109;HTU21D;19481;51.118;6.940;2023-04-25T00:05:40;5.35;64.59
33109;HTU21D;19481;51.118;6.940;2023-04-25T00:10:41;5.32;64.88
33109;HTU21D;19481;51.118;6.940;2023-04-25T00:15:43;5.22;64.92
33109;HTU21D;19481;51.118;6.940;2023-04-25T00:20:49;5.11;65.15
33109;HTU21D;19481;51.118;6.940;2023-04-25T00:25:51;5.09;65.19
33109;HTU21D;19481;51.118;6.940;2023-04-25T00:30:52;5.15;64.98
33109;HTU21D;19481;51.118;6.940;2023-04-25T00:35:56;5.32;64.55
33109;HTU21D;19481;51.118;6.940;2023-04-25T00:40:57;5.50;64.40
33109;HTU21D;19481;51.118;6.940;2023-04-25T00:45:59;5.74;63.81
33109;HTU21D;19481;51.118;6.940;2023-04-25T00:51:02;5.93;63.53
33109;HTU21D;19481;51.118;6.940;2023-04-25T00:56:05;6.08;63.53
33109;HTU21D;19481;51.118;6.940;2023-04-25T01:01:07;6.16;63.42
33109;HTU21D;19481;51.118;6.940;2023-04-25T01:06:11;6.30;63.17
33109;HTU21D;19481;51.118;6.940;2023-04-25T01:11:13;6.49;62.87
33109;HTU21D;19481;51.118;6.940;2023-04-25T01:16:15;6.59;62.82
33109;HTU21D;19481;51.118;6.940;2023-04-25T01:21:18;6.71;62.54
33109;HTU21D;19481;51.118;6.940;2023-04-25T01:26:20;6.85;62.40
33109;HTU21D;19481;51.118;6.940;2023-04-25T01:31:22;6.96;62.38
33109;HTU21D;19481;51.118;6.940;2023-04-25T01:36:25;7.02;62.25
33109;HTU21D;19481;51.118;6.940;2023-04-25T01:41:27;7.10;62.22
33109;HTU21D;19481;51.118;6.940;2023-04-25T01:46:29;7.15;62.31
33109;HTU21D;19481;51.118;6.940;2023-04-25T01:51:32;7.17;62.35
33109;HTU21D;19481;51.118;6.940;2023-04-25T01:56:36;7.11;62.70
33109;HTU21D;19481;51.118;6.940;2023-04-25T02:01:38;6.90;63.43
33109;HTU21D;19481;51.118;6.940;2023-04-25T02:06:41;6.81;63.60
33109;HTU21D;19481;51.118;6.940;2023-04-25T02:11:43;6.70;63.91
33109;HTU21D;19481;51.118;6.940;2023-04-25T02:16:45;6.74;63.77
33109;HTU21D;19481;51.118;6.940;2023-04-25T02:21:48;6.75;63.54
33109;HTU21D;19481;51.118;6.940;2023-04-25T02:26:49;6.78;63.85
33109;HTU21D;19481;51.118;6.940;2023-04-25T02:31:51;6.84;63.66
33109;HTU21D;19481;51.118;6.940;2023-04-25T02:36:54;6.89;63.45
33109;HTU21D;19481;51.118;6.940;2023-04-25T02:41:55;6.89;63.60
33109;HTU21D;19481;51.118;6.940;2023-04-25T02:46:57;6.93;63.63
33109;HTU21D;19481;51.118;6.940;2023-04-25T02:52:00;6.94;63.50
33109;HTU21D;19481;51.118;6.940;2023-04-25T02:57:02;6.94;63.65
33109;HTU21D;19481;51.118;6.940;2023-04-25T03:02:03;6.87;63.79
33109;HTU21D;19481;51.118;6.940;2023-04-25T03:07:06;6.94;63.61
33109;HTU21D;19481;51.118;6.940;2023-04-25T03:12:08;6.90;63.81
33109;HTU21D;19481;51.118;6.940;2023-04-25T03:17:09;6.95;63.85
33109;HTU21D;19481;51.118;6.940;2023-04-25T03:22:12;6.96;63.65
33109;HTU21D;19481;51.118;6.940;2023-04-25T03:27:14;7.01;63.63
33109;HTU21D;19481;51.118;6.940;2023-04-25T03:32:15;7.05;63.53
33109;HTU21D;19481;51.118;6.940;2023-04-25T03:37:18;7.04;63.63
33109;HTU21D;19481;51.118;6.940;2023-04-25T03:42:20;7.07;63.60
33109;HTU21D;19481;51.118;6.940;2023-04-25T03:47:23;7.12;63.56
33109;HTU21D;19481;51.118;6.940;2023-04-25T03:52:26;7.13;63.56
33109;HTU21D;19481;51.118;6.940;2023-04-25T03:57:27;7.14;63.60
33109;HTU21D;19481;51.118;6.940;2023-04-25T04:02:29;7.16;63.83
33109;HTU21D;19481;51.118;6.940;2023-04-25T04:07:32;7.17;63.70
33109;HTU21D;19481;51.118;6.940;2023-04-25T04:12:36;7.13;64.08
33109;HTU21D;19481;51.118;6.940;2023-04-25T04:17:38;7.14;63.91
33109;HTU21D;19481;51.118;6.940;2023-04-25T04:22:42;7.13;63.79
33109;HTU21D;19481;51.118;6.940;2023-04-25T04:27:43;7.15;63.85
33109;HTU21D;19481;51.118;6.940;2023-04-25T04:32:46;7.16;64.00
33109;HTU21D;19481;51.118;6.940;2023-04-25T04:37:50;7.15;63.86
33109;HTU21D;19481;51.118;6.940;2023-04-25T04:42:52;7.20;63.93
33109;HTU21D;19481;51.118;6.940;2023-04-25T04:47:56;7.14;64.30
33109;HTU21D;19481;51.118;6.940;2023-04-25T04:53:01;7.15;64.20
33109;HTU21D;19481;51.118;6.940;2023-04-25T04:58:03;7.07;64.57
33109;HTU21D;19481;51.118;6.940;2023-04-25T05:03:04;7.05;64.43
33109;HTU21D;19481;51.118;6.940;2023-04-25T05:08:08;7.01;64.29
33109;HTU21D;19481;51.118;6.940;2023-04-25T05:13:09;6.98;64.47
33109;HTU21D;19481;51.118;6.940;2023-04-25T05:18:11;7.04;64.23
33109;HTU21D;19481;51.118;6.940;2023-04-25T05:23:14;7.13;63.98
33109;HTU21D;19481;51.118;6.940;2023-04-25T05:28:15;7.32;63.66
33109;HTU21D;19481;51.118;6.940;2023-04-25T05:33:17;7.53;63.15
33109;HTU21D;19481;51.118;6.940;2023-04-25T05:38:20;7.83;62.48
33109;HTU21D;19481;51.118;6.940;2023-04-25T05:43:21;7.82;62.63
33109;HTU21D;19481;51.118;6.940;2023-04-25T05:48:23;8.09;62.05
33109;HTU21D;19481;51.118;6.940;2023-04-25T05:53:26;8.34;61.43
33109;HTU21D;19481;51.118;6.940;2023-04-25T05:58:28;8.38;61.54
33109;HTU21D;19481;51.118;6.940;2023-04-25T06:03:30;9.66;58.93
33109;HTU21D;19481;51.118;6.940;2023-04-25T06:08:33;10.06;59.19
33109;HTU21D;19481;51.118;6.940;2023-04-25T06:13:35;8.98;63.06
33109;HTU21D;19481;51.118;6.940;2023-04-25T06:18:36;8.83;62.81
33109;HTU21D;19481;51.118;6.940;2023-04-25T06:23:39;8.51;63.02
33109;HTU21D;19481;51.118;6.940;2023-04-25T06:28:41;8.64;62.38
33109;HTU21D;19481;51.118;6.940;2023-04-25T06:33:42;8.78;61.77
33109;HTU21D;19481;51.118;6.940;2023-04-25T06:38:45;9.04;60.93
33109;HTU21D;19481;51.118;6.940;2023-04-25T06:43:47;9.26;60.41
33109;HTU21D;19481;51.118;6.940;2023-04-25T06:48:48;9.59;59.78
33109;HTU21D;19481;51.118;6.940;2023-04-25T06:53:51;9.84;59.38
33109;HTU21D;19481;51.118;6.940;2023-04-25T06:58:53;10.14;58.85
33109;HTU21D;19481;51.118;6.940;2023-04-25T07:03:55;9.86;59.66
33109;HTU21D;19481;51.118;6.940;2023-04-25T07:08:57;9.90;59.74
33109;HTU21D;19481;51.118;6.940;2023-04-25T07:13:59;9.59;60.12
33109;HTU21D;19481;51.118;6.940;2023-04-25T07:19:01;9.55;59.35
33109;HTU21D;19481;51.118;6.940;2023-04-25T07:24:04;10.63;56.47
33109;HTU21D;19481;51.118;6.940;2023-04-25T07:29:08;10.00;59.06
33109;HTU21D;19481;51.118;6.940;2023-04-25T07:34:10;10.25;58.25
33109;HTU21D;19481;51.118;6.940;2023-04-25T07:39:13;10.83;57.03
33109;HTU21D;19481;51.118;6.940;2023-04-25T07:44:14;10.81;57.45
33109;HTU21D;19481;51.118;6.940;2023-04-25T07:49:16;11.61;55.66
33109;HTU21D;19481;51.118;6.940;2023-04-25T07:54:19;11.52;56.75
33109;HTU21D;19481;51.118;6.940;2023-04-25T07:59:21;11.20;57.74
33109;HTU21D;19481;51.118;6.940;2023-04-25T08:04:22;10.54;59.03
33109;HTU21D;19481;51.118;6.940;2023-04-25T08:09:26;9.94;59.73
33109;HTU21D;19481;51.118;6.940;2023-04-25T08:14:28;9.53;59.77
33109;HTU21D;19481;51.118;6.940;2023-04-25T08:19:36;9.62;58.80
33109;HTU21D;19481;51.118;6.940;2023-04-25T08:24:39;9.48;58.73
33109;HTU21D;19481;51.118;6.940;2023-04-25T08:29:41;9.49;58.64
33109;HTU21D;19481;51.118;6.940;2023-04-25T08:34:43;9.60;58.04
33109;HTU21D;19481;51.118;6.940;2023-04-25T08:39:46;9.75;56.95
33109;HTU21D;19481;51.118;6.940;2023-04-25T08:44:48;10.04;56.10
33109;HTU21D;19481;51.118;6.940;2023-04-25T08:49:51;13.05;49.24
33109;HTU21D;19481;51.118;6.940;2023-04-25T08:54:57;12.45;53.04
33109;HTU21D;19481;51.118;6.940;2023-04-25T09:00:00;11.32;56.61
33109;HTU21D;19481;51.118;6.940;2023-04-25T09:05:03;11.03;55.04
33109;HTU21D;19481;51.118;6.940;2023-04-25T09:10:07;10.75;56.46
33109;HTU21D;19481;51.118;6.940;2023-04-25T09:15:11;11.75;53.62
33109;HTU21D;19481;51.118;6.940;2023-04-25T09:20:14;14.00;48.57
33109;HTU21D;19481;51.118;6.940;2023-04-25T09:25:17;14.08;50.42
33109;HTU21D;19481;51.118;6.940;2023-04-25T09:30:28;13.05;45.76
33109;HTU21D;19481;51.118;6.940;2023-04-25T09:35:35;12.75;47.32
33109;HTU21D;19481;51.118;6.940;2023-04-25T09:40:43;12.97;45.76
33109;HTU21D;19481;51.118;6.940;2023-04-25T09:45:45;12.89;52.16
33109;HTU21D;19481;51.118;6.940;2023-04-25T09:51:04;12.61;46.70
33109;HTU21D;19481;51.118;6.940;2023-04-25T09:56:08;12.94;51.60
33109;HTU21D;19481;51.118;6.940;2023-04-25T10:01:10;14.14;48.65
33109;HTU21D;19481;51.118;6.940;2023-04-25T10:06:17;14.49;47.67
33109;HTU21D;19481;51.118;6.940;2023-04-25T10:11:21;13.52;51.02
33109;HTU21D;19481;51.118;6.940;2023-04-25T10:16:24;12.95;52.13
33109;HTU21D;19481;51.118;6.940;2023-04-25T10:21:28;12.64;52.61
33109;HTU21D;19481;51.118;6.940;2023-04-25T10:26:34;12.11;53.39
33109;HTU21D;19481;51.118;6.940;2023-04-25T10:31:45;11.92;46.51
33109;HTU21D;19481;51.118;6.940;2023-04-25T10:36:50;11.87;51.93
33109;HTU21D;19481;51.118;6.940;2023-04-25T10:41:56;12.11;50.54
33109;HTU21D;19481;51.118;6.940;2023-04-25T10:46:59;12.28;49.86
33109;HTU21D;19481;51.118;6.940;2023-04-25T10:52:12;12.23;47.34
33109;HTU21D;19481;51.118;6.940;2023-04-25T10:57:31;12.18;39.24
33109;HTU21D;19481;51.118;6.940;2023-04-25T11:02:37;12.26;49.56
33109;HTU21D;19481;51.118;6.940;2023-04-25T11:07:44;12.40;47.53
33109;HTU21D;19481;51.118;6.940;2023-04-25T11:12:51;12.76;47.46
33109;HTU21D;19481;51.118;6.940;2023-04-25T11:17:53;13.05;47.38
33109;HTU21D;19481;51.118;6.940;2023-04-25T11:22:57;13.62;45.72
33109;HTU21D;19481;51.118;6.940;2023-04-25T11:28:00;13.51;46.09
33109;HTU21D;19481;51.118;6.940;2023-04-25T11:33:03;14.54;44.61
33109;HTU21D;19481;51.118;6.940;2023-04-25T11:38:04;14.75;44.62
33109;HTU21D;19481;51.118;6.940;2023-04-25T11:43:09;15.14;40.33
33109;HTU21D;19481;51.118;6.940;2023-04-25T11:48:10;15.23;44.34
33109;HTU21D;19481;51.118;6.940;2023-04-25T11:53:12;14.86;45.31
33109;HTU21D;19481;51.118;6.940;2023-04-25T11:58:15;15.98;42.39
33109;HTU21D;19481;51.118;6.940;2023-04-25T12:03:17;15.63;43.90
33109;HTU21D;19481;51.118;6.940;2023-04-25T12:08:19;14.99;45.66
33109;HTU21D;19481;51.118;6.940;2023-04-25T12:13:23;15.22;44.38
33109;HTU21D;19481;51.118;6.940;2023-04-25T12:18:25;15.80;43.19
33109;HTU21D;19481;51.118;6.940;2023-04-25T12:23:28;15.52;43.08
33109;HTU21D;19481;51.118;6.940;2023-04-25T12:28:32;14.83;45.34
33109;HTU21D;19481;51.118;6.940;2023-04-25T12:33:35;14.50;40.18
33109;HTU21D;19481;51.118;6.940;2023-04-25T12:38:38;14.23;45.06
33109;HTU21D;19481;51.118;6.940;2023-04-25T12:43:41;13.99;45.58
33109;HTU21D;19481;51.118;6.940;2023-04-25T12:48:43;13.62;46.12
33109;HTU21D;19481;51.118;6.940;2023-04-25T12:53:44;12.91;47.08
33109;HTU21D;19481;51.118;6.940;2023-04-25T12:58:47;12.49;47.80
33109;HTU21D;19481;51.118;6.940;2023-04-25T13:03:49;11.82;49.37
33109;HTU21D;19481;51.118;6.940;2023-04-25T13:08:51;12.06;48.45
33109;HTU21D;19481;51.118;6.940;2023-04-25T13:13:55;12.55;47.06
33109;HTU21D;19481;51.118;6.940;2023-04-25T13:18:57;12.82;46.45
33109;HTU21D;19481;51.118;6.940;2023-04-25T13:23:59;13.18;45.98
33109;HTU21D;19481;51.118;6.940;2023-04-25T13:29:02;13.41;45.66
33109;HTU21D;19481;51.118;6.940;2023-04-25T13:34:04;13.49;45.71
33109;HTU21D;19481;51.118;6.940;2023-04-25T13:39:06;13.44;46.23
33109;HTU21D;19481;51.118;6.940;2023-04-25T13:44:09;13.44;45.53
33109;HTU21D;19481;51.118;6.940;2023-04-25T13:49:11;13.10;46.62
33109;HTU21D;19481;51.118;6.940;2023-04-25T13:54:13;12.65;47.28
33109;HTU21D;19481;51.118;6.940;2023-04-25T13:59:15;12.63;46.26
33109;HTU21D;19481;51.118;6.940;2023-04-25T14:04:17;12.79;46.64
33109;HTU21D;19481;51.118;6.940;2023-04-25T14:09:19;12.86;46.19
33109;HTU21D;19481;51.118;6.940;2023-04-25T14:14:27;13.11;43.80
33109;HTU21D;19481;51.118;6.940;2023-04-25T14:19:28;13.08;44.77
33109;HTU21D;19481;51.118;6.940;2023-04-25T14:24:30;12.94;41.85
33109;HTU21D;19481;51.118;6.940;2023-04-25T14:29:34;12.78;45.25
33109;HTU21D;19481;51.118;6.940;2023-04-25T14:34:36;13.24;44.46
33109;HTU21D;19481;51.118;6.940;2023-04-25T14:39:37;13.43;44.06
33109;HTU21D;19481;51.118;6.940;2023-04-25T14:44:40;13.64;42.29
33109;HTU21D;19481;51.118;6.940;2023-04-25T14:49:42;13.58;44.39
33109;HTU21D;19481;51.118;6.940;2023-04-25T14:54:43;12.85;45.57
33109;HTU21D;19481;51.118;6.940;2023-04-25T14:59:46;12.72;46.60
33109;HTU21D;19481;51.118;6.940;2023-04-25T15:04:48;12.44;47.23
33109;HTU21D;19481;51.118;6.940;2023-04-25T15:09:50;12.11;47.60
33109;HTU21D;19481;51.118;6.940;2023-04-25T15:14:54;12.18;47.41
33109;HTU21D;19481;51.118;6.940;2023-04-25T15:19:56;12.23;47.19
33109;HTU21D;19481;51.118;6.940;2023-04-25T15:24:58;12.34;46.52
33109;HTU21D;19481;51.118;6.940;2023-04-25T15:30:01;12.18;46.99
33109;HTU21D;19481;51.118;6.940;2023-04-25T15:35:04;11.88;47.32
33109;HTU21D;19481;51.118;6.940;2023-04-25T15:40:08;11.86;47.22
33109;HTU21D;19481;51.118;6.940;2023-04-25T15:45:12;11.99;46.64
33109;HTU21D;19481;51.118;6.940;2023-04-25T15:50:16;11.86;46.76
33109;HTU21D;19481;51.118;6.940;2023-04-25T15:55:18;11.85;46.73
33109;HTU21D;19481;51.118;6.940;2023-04-25T16:00:23;11.68;46.81
33109;HTU21D;19481;51.118;6.940;2023-04-25T16:05:24;11.52;47.16
33109;HTU21D;19481;51.118;6.940;2023-04-25T16:10:26;11.53;46.87
33109;HTU21D;19481;51.118;6.940;2023-04-25T16:15:29;11.72;46.23
33109;HTU21D;19481;51.118;6.940;2023-04-25T16:20:31;12.11;45.29
33109;HTU21D;19481;51.118;6.940;2023-04-25T16:25:33;12.18;45.27
33109;HTU21D;19481;51.118;6.940;2023-04-25T16:30:36;12.56;44.01
33109;HTU21D;19481;51.118;6.940;2023-04-25T16:35:38;12.43;44.78
33109;HTU21D;19481;51.118;6.940;2023-04-25T16:40:39;12.25;45.25
33109;HTU21D;19481;51.118;6.940;2023-04-25T16:45:42;12.10;45.13
33109;HTU21D;19481;51.118;6.940;2023-04-25T16:50:44;12.07;45.27
33109;HTU21D;19481;51.118;6.940;2023-04-25T16:55:45;11.75;44.91
33109;HTU21D;19481;51.118;6.940;2023-04-25T17:00:48;11.47;46.46
33109;HTU21D;19481;51.118;6.940;2023-04-25T17:05:52;11.42;46.31
33109;HTU21D;19481;51.118;6.940;2023-04-25T17:10:56;11.33;46.35
33109;HTU21D;19481;51.118;6.940;2023-04-25T17:16:00;11.40;46.05
33109;HTU21D;19481;51.118;6.940;2023-04-25T17:21:02;11.46;45.80
33109;HTU21D;19481;51.118;6.940;2023-04-25T17:26:05;11.56;45.30
33109;HTU21D;19481;51.118;6.940;2023-04-25T17:31:08;11.52;44.82
33109;HTU21D;19481;51.118;6.940;2023-04-25T17:36:09;11.40;45.58
33109;HTU21D;19481;51.118;6.940;2023-04-25T17:41:11;11.55;45.35
33109;HTU21D;19481;51.118;6.940;2023-04-25T17:46:15;11.58;45.22
33109;HTU21D;19481;51.118;6.940;2023-04-25T17:51:17;11.33;45.94
33109;HTU21D;19481;51.118;6.940;2023-04-25T17:56:18;11.20;45.96
33109;HTU21D;19481;51.118;6.940;2023-04-25T18:01:22;10.84;46.82
33109;HTU21D;19481;51.118;6.940;2023-04-25T18:06:23;10.59;47.30
33109;HTU21D;19481;51.118;6.940;2023-04-25T18:11:27;10.29;47.70
33109;HTU21D;19481;51.118;6.940;2023-04-25T18:16:30;10.05;47.92
33109;HTU21D;19481;51.118;6.940;2023-04-25T18:21:32;9.89;47.85
33109;HTU21D;19481;51.118;6.940;2023-04-25T18:26:33;9.71;47.89
33109;HTU21D;19481;51.118;6.940;2023-04-25T18:31:37;9.61;47.70
33109;HTU21D;19481;51.118;6.940;2023-04-25T18:36:39;9.53;47.73
33109;HTU21D;19481;51.118;6.940;2023-04-25T18:41:41;9.53;47.68
33109;HTU21D;19481;51.118;6.940;2023-04-25T18:46:43;9.46;47.69
33109;HTU21D;19481;51.118;6.940;2023-04-25T18:51:46;9.25;48.05
33109;HTU21D;19481;51.118;6.940;2023-04-25T18:56:48;9.11;48.23
33109;HTU21D;19481;51.118;6.940;2023-04-25T19:01:52;9.04;48.00
33109;HTU21D;19481;51.118;6.940;2023-04-25T19:06:54;8.90;48.15
33109;HTU21D;19481;51.118;6.940;2023-04-25T19:11:56;8.74;48.32
33109;HTU21D;19481;51.118;6.940;2023-04-25T19:16:59;8.66;48.18
33109;HTU21D;19481;51.118;6.940;2023-04-25T19:22:00;8.50;48.47
33109;HTU21D;19481;51.118;6.940;2023-04-25T19:27:02;8.38;48.73
33109;HTU21D;19481;51.118;6.940;2023-04-25T19:32:05;8.24;48.98
33109;HTU21D;19481;51.118;6.940;2023-04-25T19:37:07;8.09;49.34
33109;HTU21D;19481;51.118;6.940;2023-04-25T19:42:09;7.96;49.73
33109;HTU21D;19481;51.118;6.940;2023-04-25T19:47:12;7.81;50.01
33109;HTU21D;19481;51.118;6.940;2023-04-25T19:52:14;7.73;50.02
33109;HTU21D;19481;51.118;6.940;2023-04-25T19:57:16;7.64;50.15
33109;HTU21D;19481;51.118;6.940;2023-04-25T20:02:19;7.48;50.62
33109;HTU21D;19481;51.118;6.940;2023-04-25T20:07:21;7.35;50.89
33109;HTU21D;19481;51.118;6.940;2023-04-25T20:12:23;7.28;51.16
33109;HTU21D;19481;51.118;6.940;2023-04-25T20:17:26;7.26;50.94
33109;HTU21D;19481;51.118;6.940;2023-04-25T20:22:28;7.26;50.72
33109;HTU21D;19481;51.118;6.940;2023-04-25T20:27:36;7.18;50.87
33109;HTU21D;19481;51.118;6.940;2023-04-25T20:32:39;7.10;50.96
33109;HTU21D;19481;51.118;6.940;2023-04-25T20:37:41;7.00;51.13
33109;HTU21D;19481;51.118;6.940;2023-04-25T20:42:43;6.90;51.37
33109;HTU21D;19481;51.118;6.940;2023-04-25T20:47:46;6.81;51.50
33109;HTU21D;19481;51.118;6.940;2023-04-25T20:52:48;6.67;52.02
33109;HTU21D;19481;51.118;6.940;2023-04-25T20:57:50;6.57;52.20
33109;HTU21D;19481;51.118;6.940;2023-04-25T21:02:54;6.38;52.69
33109;HTU21D;19481;51.118;6.940;2023-04-25T21:07:56;6.19;53.19
33109;HTU21D;19481;51.118;6.940;2023-04-25T21:12:58;6.02;53.78
33109;HTU21D;19481;51.118;6.940;2023-04-25T21:18:01;5.95;53.67
33109;HTU21D;19481;51.118;6.940;2023-04-25T21:23:03;5.77;54.11
33109;HTU21D;19481;51.118;6.940;2023-04-25T21:28:04;5.63;54.30
33109;HTU21D;19481;51.118;6.940;2023-04-25T21:33:08;5.52;54.35
33109;HTU21D;19481;51.118;6.940;2023-04-25T21:38:10;5.41;54.52
33109;HTU21D;19481;51.118;6.940;2023-04-25T21:43:14;5.40;54.57
33109;HTU21D;19481;51.118;6.940;2023-04-25T21:48:17;5.21;54.70
33109;HTU21D;19481;51.118;6.940;2023-04-25T21:53:18;5.15;55.00
33109;HTU21D;19481;51.118;6.940;2023-04-25T21:58:20;4.96;55.29
33109;HTU21D;19481;51.118;6.940;2023-04-25T22:03:23;4.91;55.52
33109;HTU21D;19481;51.118;6.940;2023-04-25T22:08:24;4.80;55.84
33109;HTU21D;19481;51.118;6.940;2023-04-25T22:13:26;4.72;55.79
33109;HTU21D;19481;51.118;6.940;2023-04-25T22:18:29;4.62;55.83
33109;HTU21D;19481;51.118;6.940;2023-04-25T22:23:31;4.60;55.85
33109;HTU21D;19481;51.118;6.940;2023-04-25T22:28:32;4.52;55.96
33109;HTU21D;19481;51.118;6.940;2023-04-25T22:33:36;4.42;55.91
33109;HTU21D;19481;51.118;6.940;2023-04-25T22:38:37;4.35;56.12
33109;HTU21D;19481;51.118;6.940;2023-04-25T22:43:40;4.22;56.67
33109;HTU21D;19481;51.118;6.940;2023-04-25T22:48:43;4.18;56.45
33109;HTU21D;19481;51.118;6.940;2023-04-25T22:53:45;4.07;57.02
33109;HTU21D;19481;51.118;6.940;2023-04-25T22:58:47;3.95;57.03
33109;HTU21D;19481;51.118;6.940;2023-04-25T23:03:50;3.88;57.12
33109;HTU21D;19481;51.118;6.940;2023-04-25T23:08:51;3.79;57.31
33109;HTU21D;19481;51.118;6.940;2023-04-25T23:13:53;3.71;57.56
33109;HTU21D;19481;51.118;6.940;2023-04-25T23:18:57;3.60;57.92
33109;HTU21D;19481;51.118;6.940;2023-04-25T23:23:58;3.60;58.54
33109;HTU21D;19481;51.118;6.940;2023-04-25T23:29:00;3.55;58.32
33109;HTU21D;19481;51.118;6.940;2023-04-25T23:34:03;3.49;58.02
33109;HTU21D;19481;51.118;6.940;2023-04-25T23:39:07;3.39;58.36
33109;HTU21D;19481;51.118;6.940;2023-04-25T23:44:09;3.28;59.16
33109;HTU21D;19481;51.118;6.940;2023-04-25T23:49:12;3.28;58.91
33109;HTU21D;19481;51.118;6.940;2023-04-25T23:54:14;3.21;59.28
33109;HTU21D;19481;51.118;6.940;2023-04-25T23:59:16;3.17;59.21
